Time;durP1;ratioP1;P1;durP2;ratioP2;P2;SDS_P1;SDS_P2;PMS_P1;PMS_P2;Temp;Humidity;BMP_temperature;BMP_pressure;BME280_temperature;BME280_humidity;BME280_pressure;Samples;Min_cycle;Max_cycle;Signal;HPM_P1;HPM_P2
2023/06/17 00:01:10;;;;;;;7.90;5.67;;;18.90;74.90;;;;;;10232809;28;20242;-72
2023/06/17 00:06:12;;;;;;;7.40;5.83;;;18.80;76.00;;;;;;10230983;28;20231;-73
2023/06/17 00:11:13;;;;;;;6.90;5.33;;;18.70;76.50;;;;;;10229028;28;20717;-73
2023/06/17 00:16:14;;;;;;;5.80;5.20;;;18.70;73.70;;;;;;10236635;28;20219;-74
2023/06/17 00:21:14;;;;;;;7.53;5.80;;;18.70;74.80;;;;;;10236605;28;20618;-74
2023/06/17 00:26:15;;;;;;;6.07;5.47;;;18.60;75.60;;;;;;10220958;28;20606;-74
2023/06/17 00:31:15;;;;;;;6.03;5.20;;;18.60;76.20;;;;;;10226790;28;20231;-74
2023/06/17 00:36:16;;;;;;;5.90;4.93;;;18.60;74.40;;;;;;10213924;28;20599;-73
2023/06/17 00:41:20;;;;;;;6.50;5.17;;;18.70;71.70;;;;;;10219286;28;20228;-73
2023/06/17 00:46:26;;;;;;;6.10;5.40;;;18.80;71.70;;;;;;10228609;28;20258;-73
2023/06/17 00:51:28;;;;;;;7.10;5.73;;;18.80;73.00;;;;;;10234920;28;20230;-73
2023/06/17 00:56:31;;;;;;;5.77;5.17;;;18.60;75.10;;;;;;10219823;28;20705;-73
2023/06/17 01:01:35;;;;;;;8.60;5.80;;;18.50;75.90;;;;;;10234900;28;20228;-72
2023/06/17 01:06:42;;;;;;;9.50;6.17;;;18.20;76.30;;;;;;10226181;28;20675;-73
2023/06/17 01:11:44;;;;;;;6.23;5.53;;;18.00;77.20;;;;;;10226880;28;20725;-73
2023/06/17 01:16:50;;;;;;;9.73;5.57;;;17.90;78.20;;;;;;10228644;28;20224;-74
2023/06/17 01:21:53;;;;;;;8.00;6.33;;;17.70;78.80;;;;;;10219206;28;20231;-73
2023/06/17 01:27:00;;;;;;;6.70;6.10;;;17.50;80.10;;;;;;10222459;28;20231;-72
2023/06/17 01:32:00;;;;;;;6.33;5.70;;;17.40;81.30;;;;;;10220957;28;20258;-74
2023/06/17 01:37:07;;;;;;;6.97;6.20;;;17.30;81.60;;;;;;10229412;28;20315;-73
2023/06/17 01:42:15;;;;;;;7.50;6.20;;;17.20;82.60;;;;;;10223728;28;20242;-74
2023/06/17 01:47:15;;;;;;;9.13;6.80;;;17.10;83.70;;;;;;10219172;28;20313;-72
2023/06/17 01:52:19;;;;;;;6.57;5.87;;;16.90;84.30;;;;;;10224857;28;20278;-72
2023/06/17 01:57:20;;;;;;;9.80;5.90;;;16.80;85.20;;;;;;10223859;28;20230;-72
2023/06/17 02:02:21;;;;;;;7.03;6.33;;;16.60;86.00;;;;;;10218161;28;20239;-74
2023/06/17 02:07:25;;;;;;;8.20;6.30;;;16.60;87.10;;;;;;10230470;28;20251;-73
2023/06/17 02:12:26;;;;;;;7.00;5.77;;;16.50;87.50;;;;;;10231021;28;20282;-72
2023/06/17 02:17:27;;;;;;;7.47;6.67;;;16.50;87.70;;;;;;10223553;28;20253;-73
2023/06/17 02:22:28;;;;;;;7.07;6.10;;;16.40;87.70;;;;;;10217515;28;20228;-73
2023/06/17 02:27:28;;;;;;;8.33;6.20;;;16.50;88.30;;;;;;10251351;28;20222;-73
2023/06/17 02:32:29;;;;;;;6.60;5.93;;;16.40;88.60;;;;;;10223589;28;20236;-73
2023/06/17 02:37:30;;;;;;;7.50;6.40;;;16.40;88.90;;;;;;10223109;28;20853;-72
2023/06/17 02:42:30;;;;;;;9.10;6.23;;;16.40;88.60;;;;;;10223751;28;20240;-73
2023/06/17 02:47:31;;;;;;;7.40;6.43;;;16.30;89.00;;;;;;10224323;28;20623;-73
2023/06/17 02:52:34;;;;;;;8.00;6.60;;;16.20;89.10;;;;;;10216807;28;20226;-72
2023/06/17 02:57:35;;;;;;;7.40;6.60;;;16.10;89.80;;;;;;10224214;28;20302;-72
2023/06/17 03:02:36;;;;;;;7.33;6.20;;;16.20;89.90;;;;;;10225384;28;20235;-73
2023/06/17 03:07:37;;;;;;;9.90;6.50;;;16.20;89.50;;;;;;10232863;28;20427;-72
2023/06/17 03:12:37;;;;;;;8.90;6.50;;;16.20;89.10;;;;;;10230202;28;20223;-73
2023/06/17 03:17:38;;;;;;;8.23;7.30;;;16.20;89.30;;;;;;10227929;28;20685;-73
2023/06/17 03:22:39;;;;;;;9.73;7.33;;;16.10;89.50;;;;;;10228817;28;20231;-73
2023/06/17 03:27:40;;;;;;;7.70;6.70;;;16.10;89.60;;;;;;10223113;28;20294;-73
2023/06/17 03:32:40;;;;;;;7.07;6.30;;;16.20;89.50;;;;;;10234237;28;20230;-72
2023/06/17 03:37:41;;;;;;;8.80;7.00;;;16.20;89.40;;;;;;10223335;28;20627;-72
2023/06/17 03:42:41;;;;;;;8.67;6.50;;;16.10;89.20;;;;;;10240225;28;20585;-72
2023/06/17 03:47:42;;;;;;;9.03;6.47;;;16.10;89.00;;;;;;10228990;28;20621;-73
2023/06/17 03:52:42;;;;;;;7.37;6.30;;;16.10;88.70;;;;;;10228444;28;20714;-72
2023/06/17 03:57:43;;;;;;;7.83;6.57;;;16.10;89.60;;;;;;10227906;28;20234;-72
2023/06/17 04:02:45;;;;;;;7.70;6.73;;;16.30;89.90;;;;;;10233172;28;20926;-71
2023/06/17 04:07:46;;;;;;;9.53;6.73;;;16.50;89.30;;;;;;10229285;28;20228;-72
2023/06/17 04:12:47;;;;;;;7.07;6.37;;;16.60;88.50;;;;;;10229683;28;20924;-73
2023/06/17 04:17:47;;;;;;;9.73;7.17;;;16.80;87.80;;;;;;10228326;28;20406;-73
2023/06/17 04:22:48;;;;;;;9.60;7.33;;;17.00;87.10;;;;;;10234569;28;20254;-73
2023/06/17 04:27:49;;;;;;;9.50;8.50;;;17.20;86.50;;;;;;10234065;28;20223;-73
2023/06/17 04:32:50;;;;;;;8.37;7.40;;;17.40;85.80;;;;;;10228027;28;20235;-73
2023/06/17 04:37:56;;;;;;;7.53;6.57;;;17.50;85.30;;;;;;10219566;28;20715;-73
2023/06/17 04:42:57;;;;;;;7.60;6.73;;;18.00;84.40;;;;;;10223154;28;20236;-73
2023/06/17 04:47:57;;;;;;;8.77;7.17;;;18.30;83.00;;;;;;10228761;28;20238;-74
2023/06/17 04:53:04;;;;;;;11.07;8.03;;;18.40;82.40;;;;;;10228634;28;20238;-73
2023/06/17 04:58:05;;;;;;;10.53;8.03;;;18.50;82.30;;;;;;10224096;28;20249;-73
2023/06/17 05:03:06;;;;;;;10.77;7.23;;;18.80;81.70;;;;;;10221825;28;20240;-73
2023/06/17 05:08:06;;;;;;;9.30;7.33;;;19.60;80.60;;;;;;10223522;28;20227;-73
2023/06/17 05:13:07;;;;;;;10.83;6.97;;;22.10;72.00;;;;;;10223752;28;20223;-74
2023/06/17 05:18:10;;;;;;;6.67;5.83;;;24.60;62.50;;;;;;10219791;28;20232;-74
2023/06/17 05:23:11;;;;;;;6.70;5.90;;;26.70;57.20;;;;;;10225907;28;20278;-74
2023/06/17 05:28:12;;;;;;;7.47;6.13;;;27.90;54.00;;;;;;10226716;28;20223;-73
2023/06/17 05:33:12;;;;;;;6.90;6.20;;;28.80;51.20;;;;;;10224825;28;20310;-73
2023/06/17 05:38:13;;;;;;;6.73;6.03;;;29.40;49.80;;;;;;10224818;28;20220;-72
2023/06/17 05:43:13;;;;;;;10.10;6.30;;;30.20;48.70;;;;;;10231161;28;20243;-74
2023/06/17 05:48:14;;;;;;;9.47;6.97;;;31.10;46.40;;;;;;10223439;28;20242;-74
2023/06/17 05:53:15;;;;;;;8.40;6.87;;;31.60;45.00;;;;;;10230403;28;20291;-73
2023/06/17 05:58:16;;;;;;;7.50;6.07;;;32.20;44.10;;;;;;10223715;28;20223;-74
2023/06/17 06:03:18;;;;;;;6.63;5.87;;;32.80;43.10;;;;;;10230886;28;20228;-74
2023/06/17 06:08:18;;;;;;;7.50;6.43;;;33.10;42.30;;;;;;10231598;28;20220;-72
2023/06/17 06:13:19;;;;;;;7.97;6.00;;;33.50;41.70;;;;;;10217912;28;20319;-73
2023/06/17 06:18:20;;;;;;;5.67;5.07;;;34.20;40.80;;;;;;10223755;28;20674;-75
2023/06/17 06:23:20;;;;;;;5.63;5.03;;;34.90;39.50;;;;;;10215405;28;20374;-74
2023/06/17 06:28:21;;;;;;;13.17;5.17;;;35.30;39.20;;;;;;10223922;28;20243;-73
2023/06/17 06:33:22;;;;;;;9.20;5.27;;;35.60;38.60;;;;;;10230615;28;20223;-75
2023/06/17 06:38:26;;;;;;;5.50;5.00;;;36.00;38.30;;;;;;10227259;28;20358;-73
2023/06/17 06:43:27;;;;;;;4.93;4.53;;;36.50;37.00;;;;;;10230932;28;20227;-73
2023/06/17 06:48:28;;;;;;;6.93;5.20;;;37.50;36.10;;;;;;10236160;28;20780;-74
2023/06/17 06:53:28;;;;;;;8.03;5.50;;;38.40;35.10;;;;;;10231455;28;20226;-74
2023/06/17 06:58:29;;;;;;;6.00;4.93;;;38.40;34.20;;;;;;10223064;28;20224;-74
2023/06/17 07:03:29;;;;;;;9.57;5.57;;;38.10;34.30;;;;;;10223596;28;20340;-73
2023/06/17 07:08:30;;;;;;;5.60;5.10;;;39.10;33.80;;;;;;10222282;28;20219;-73
2023/06/17 07:13:31;;;;;;;5.90;5.30;;;39.80;32.50;;;;;;10230094;28;20686;-73
2023/06/17 07:18:32;;;;;;;9.13;5.97;;;39.50;32.10;;;;;;10235969;28;20238;-74
2023/06/17 07:23:34;;;;;;;8.00;6.23;;;39.20;31.80;;;;;;10223262;28;20224;-73
2023/06/17 07:28:35;;;;;;;10.23;6.13;;;39.60;32.10;;;;;;10220102;28;20546;-74
2023/06/17 07:33:35;;;;;;;6.93;5.40;;;40.40;31.40;;;;;;10228815;28;20261;-75
2023/06/17 07:38:36;;;;;;;6.17;5.67;;;40.50;31.50;;;;;;10222610;28;20219;-74
2023/06/17 07:43:36;;;;;;;9.40;6.03;;;40.60;30.50;;;;;;10232977;28;20227;-73
2023/06/17 07:48:37;;;;;;;9.40;6.68;;;41.00;30.10;;;;;;10227202;28;20228;-73
2023/06/17 07:53:37;;;;;;;9.20;6.00;;;41.30;30.10;;;;;;10239574;28;20254;-73
2023/06/17 07:58:38;;;;;;;7.45;5.72;;;41.90;29.40;;;;;;10221226;28;20311;-74
2023/06/17 08:03:39;;;;;;;6.18;5.50;;;42.20;29.30;;;;;;10227813;28;20236;-73
2023/06/17 08:08:40;;;;;;;7.57;5.75;;;42.90;29.10;;;;;;10227464;28;20211;-74
2023/06/17 08:13:41;;;;;;;10.93;5.78;;;43.40;28.80;;;;;;10222767;28;20598;-74
2023/06/17 08:18:41;;;;;;;8.50;5.45;;;43.60;28.30;;;;;;10234953;28;20223;-74
2023/06/17 08:23:42;;;;;;;6.93;5.22;;;44.10;28.30;;;;;;10234501;28;20223;-73
2023/06/17 08:28:43;;;;;;;7.28;4.78;;;44.90;27.40;;;;;;10226877;28;20227;-74
2023/06/17 08:33:43;;;;;;;5.80;5.25;;;44.70;27.00;;;;;;10228569;28;20353;-74
2023/06/17 08:38:44;;;;;;;6.57;4.53;;;44.30;26.70;;;;;;10227674;28;20211;-74
2023/06/17 08:43:49;;;;;;;5.53;4.93;;;44.70;26.30;;;;;;10220596;28;20270;-74
2023/06/17 08:48:51;;;;;;;5.10;4.60;;;45.30;26.20;;;;;;10221544;28;20916;-75
2023/06/17 08:53:52;;;;;;;6.75;5.30;;;46.20;25.20;;;;;;10224780;28;20603;-74
2023/06/17 08:58:54;;;;;;;4.88;4.40;;;45.60;25.20;;;;;;10222252;28;20721;-75
2023/06/17 09:03:55;;;;;;;5.25;4.75;;;45.60;26.20;;;;;;10227076;28;20687;-74
2023/06/17 09:08:59;;;;;;;4.97;4.47;;;46.00;25.40;;;;;;10230431;28;20294;-74
2023/06/17 09:14:01;;;;;;;5.72;4.53;;;46.60;25.00;;;;;;10233782;28;20645;-75
2023/06/17 09:19:06;;;;;;;4.47;4.22;;;47.00;24.70;;;;;;10222457;28;20211;-74
2023/06/17 09:24:08;;;;;;;4.72;4.30;;;47.40;23.00;;;;;;10221753;28;20714;-74
2023/06/17 09:29:12;;;;;;;7.47;4.40;;;47.10;23.30;;;;;;10230519;28;20307;-75
2023/06/17 09:34:14;;;;;;;9.57;4.53;;;46.50;23.10;;;;;;10227215;28;20573;-74
2023/06/17 09:39:14;;;;;;;6.78;4.72;;;46.40;23.40;;;;;;10223006;28;20226;-74
2023/06/17 09:44:18;;;;;;;5.45;4.20;;;46.50;23.30;;;;;;10219980;28;20234;-74
2023/06/17 09:49:23;;;;;;;7.60;4.30;;;47.00;22.70;;;;;;10224622;28;20231;-76
2023/06/17 09:54:24;;;;;;;5.32;4.82;;;47.40;22.40;;;;;;10224306;28;20721;-75
2023/06/17 09:59:26;;;;;;;21.15;5.50;;;48.10;21.90;;;;;;10222422;28;20228;-75
2023/06/17 10:04:27;;;;;;;5.80;4.95;;;47.50;22.60;;;;;;10223572;28;20223;-75
2023/06/17 10:09:29;;;;;;;4.82;4.43;;;47.80;22.60;;;;;;10224902;28;20232;-75
2023/06/17 10:14:33;;;;;;;5.22;4.20;;;47.40;21.30;;;;;;10229681;28;20227;-74
2023/06/17 10:19:37;;;;;;;6.70;3.97;;;45.40;23.40;;;;;;10231645;28;20220;-75
2023/06/17 10:24:38;;;;;;;22.95;4.95;;;45.90;22.30;;;;;;10225879;28;20215;-74
2023/06/17 10:29:43;;;;;;;5.75;4.18;;;45.20;22.90;;;;;;10217636;28;20664;-74
2023/06/17 10:35:10;;;;;;;5.28;4.10;;;45.20;22.80;;;;;;10222776;28;20219;-74
2023/06/17 10:40:27;;;;;;;5.80;4.35;;;46.70;22.30;;;;;;10386412;28;20255;-74
2023/06/17 10:45:32;;;;;;;4.22;3.83;;;47.30;21.40;;;;;;10223197;28;20265;-74
2023/06/17 10:50:35;;;;;;;4.88;4.13;;;46.20;21.80;;;;;;10223854;28;20242;-74
2023/06/17 10:55:36;;;;;;;4.35;3.95;;;47.00;21.80;;;;;;10224621;28;20236;-74
2023/06/17 11:00:36;;;;;;;5.13;4.72;;;46.70;21.50;;;;;;10223439;28;20228;-74
2023/06/17 11:05:37;;;;;;;6.25;4.22;;;44.00;23.20;;;;;;10222418;28;20777;-74
2023/06/17 11:10:37;;;;;;;8.07;4.55;;;44.40;23.00;;;;;;10221811;28;20219;-74
2023/06/17 11:15:38;;;;;;;9.40;4.20;;;44.90;23.10;;;;;;10222524;28;20227;-75
2023/06/17 11:20:39;;;;;;;4.68;4.28;;;45.60;22.60;;;;;;10207490;28;20227;-75
2023/06/17 11:25:40;;;;;;;4.40;3.95;;;46.00;22.00;;;;;;10226047;28;20722;-73
2023/06/17 11:30:41;;;;;;;17.95;5.28;;;46.20;22.20;;;;;;10222835;28;20658;-74
2023/06/17 11:35:43;;;;;;;4.55;4.10;;;46.20;22.00;;;;;;10226405;28;20258;-73
2023/06/17 11:40:44;;;;;;;5.43;4.50;;;44.00;22.80;;;;;;10231068;28;20230;-72
2023/06/17 11:45:44;;;;;;;5.87;4.47;;;40.70;25.20;;;;;;10233574;28;20664;-74
2023/06/17 11:50:45;;;;;;;9.17;4.50;;;38.20;27.50;;;;;;10221145;28;20223;-74
2023/06/17 11:55:46;;;;;;;5.73;4.47;;;36.10;28.90;;;;;;10230405;28;20285;-74
2023/06/17 12:00:47;;;;;;;22.50;5.70;;;35.20;30.10;;;;;;10228348;28;20266;-73
2023/06/17 12:05:48;;;;;;;6.33;4.37;;;35.00;30.00;;;;;;10225875;28;20303;-73
2023/06/17 12:10:48;;;;;;;5.27;4.77;;;34.90;30.30;;;;;;10235641;28;20241;-73
2023/06/17 12:15:49;;;;;;;9.03;4.40;;;34.90;29.70;;;;;;10222247;28;20269;-73
2023/06/17 12:20:50;;;;;;;7.43;4.73;;;34.20;29.90;;;;;;10232884;28;20220;-73
2023/06/17 12:25:50;;;;;;;8.47;4.77;;;33.80;30.50;;;;;;10227612;28;20269;-73
2023/06/17 12:30:51;;;;;;;5.23;4.70;;;33.00;30.70;;;;;;10225528;28;20212;-74
2023/06/17 12:35:52;;;;;;;8.20;4.80;;;32.70;31.40;;;;;;10230796;28;20230;-73
2023/06/17 12:40:52;;;;;;;6.27;4.97;;;33.20;31.10;;;;;;10227789;28;20219;-73
2023/06/17 12:45:54;;;;;;;8.30;5.03;;;33.30;31.10;;;;;;10232150;28;20303;-73
2023/06/17 12:50:55;;;;;;;8.40;4.57;;;33.70;30.60;;;;;;10227425;28;20238;-73
2023/06/17 12:55:59;;;;;;;4.90;4.40;;;34.00;30.00;;;;;;10221938;28;20257;-74
2023/06/17 13:01:01;;;;;;;7.13;4.53;;;33.50;30.30;;;;;;10222881;28;20230;-73
2023/06/17 13:06:01;;;;;;;15.40;5.70;;;33.70;30.60;;;;;;10226797;28;20297;-73
2023/06/17 13:11:02;;;;;;;10.50;5.03;;;33.50;30.00;;;;;;10221007;28;20284;-73
2023/06/17 13:16:03;;;;;;;8.37;4.63;;;33.40;30.20;;;;;;10226611;28;20227;-74
2023/06/17 13:21:04;;;;;;;5.40;4.87;;;33.40;30.50;;;;;;10229110;28;20251;-73
2023/06/17 13:26:05;;;;;;;7.37;5.03;;;33.50;30.00;;;;;;10229429;28;20349;-73
2023/06/17 13:31:06;;;;;;;9.43;4.80;;;33.20;30.00;;;;;;10226763;28;20588;-72
2023/06/17 13:36:07;;;;;;;7.07;4.83;;;33.00;30.70;;;;;;10225723;28;20231;-73
2023/06/17 13:41:07;;;;;;;5.53;4.90;;;32.90;31.10;;;;;;10220477;28;20220;-74
2023/06/17 13:46:08;;;;;;;6.80;4.70;;;32.70;31.90;;;;;;10221045;28;20223;-74
2023/06/17 13:51:09;;;;;;;8.00;4.97;;;32.40;31.90;;;;;;10232084;28;20227;-73
2023/06/17 13:56:10;;;;;;;5.80;5.20;;;31.90;32.30;;;;;;10219805;28;20580;-73
2023/06/17 14:01:11;;;;;;;12.93;5.53;;;32.10;32.50;;;;;;10226109;28;20231;-74
2023/06/17 14:06:11;;;;;;;5.00;4.50;;;32.10;32.50;;;;;;10229763;28;20576;-74
2023/06/17 14:11:12;;;;;;;5.07;4.60;;;32.40;30.70;;;;;;10225113;28;20665;-74
2023/06/17 14:16:16;;;;;;;7.80;5.53;;;32.40;30.00;;;;;;10229056;28;20730;-73
2023/06/17 14:21:36;;;;;;;7.07;5.00;;;32.30;30.80;;;;;;10215643;28;20293;-74
2023/06/17 14:26:39;;;;;;;7.07;4.73;;;32.20;31.00;;;;;;10223543;28;20690;-72
2023/06/17 14:31:39;;;;;;;6.17;4.70;;;32.10;31.30;;;;;;10224015;28;20603;-73
2023/06/17 14:36:40;;;;;;;6.30;4.70;;;32.00;31.70;;;;;;10228375;28;20245;-73
2023/06/17 14:41:40;;;;;;;6.50;4.97;;;32.00;31.30;;;;;;10224153;28;20330;-73
2023/06/17 14:46:41;;;;;;;6.93;5.07;;;31.90;31.10;;;;;;10223422;28;20250;-74
2023/06/17 14:51:42;;;;;;;10.33;5.27;;;31.70;31.10;;;;;;10235341;28;20674;-73
2023/06/17 14:56:42;;;;;;;6.07;5.17;;;31.40;31.40;;;;;;10223674;28;20335;-77
2023/06/17 15:01:43;;;;;;;4.47;4.13;;;31.10;32.50;;;;;;10238723;28;20703;-74
2023/06/17 15:06:44;;;;;;;5.97;4.87;;;31.00;31.20;;;;;;10235691;28;20254;-73
2023/06/17 15:11:44;;;;;;;4.93;4.50;;;31.00;31.80;;;;;;10234687;28;20273;-72
2023/06/17 15:16:46;;;;;;;5.37;4.50;;;31.20;31.60;;;;;;10237166;28;20231;-72
2023/06/17 15:21:47;;;;;;;6.03;5.10;;;31.30;30.90;;;;;;10223651;28;20224;-73
2023/06/17 15:26:48;;;;;;;7.83;4.73;;;31.30;31.20;;;;;;10235926;28;20348;-72
2023/06/17 15:31:48;;;;;;;8.43;4.67;;;31.40;30.70;;;;;;10224049;28;20258;-73
2023/06/17 15:36:49;;;;;;;4.87;4.47;;;31.60;31.10;;;;;;10225223;28;20280;-73
2023/06/17 15:41:52;;;;;;;5.70;5.10;;;31.40;30.40;;;;;;10229035;28;20326;-73
2023/06/17 15:46:52;;;;;;;4.73;4.33;;;31.30;31.60;;;;;;10222992;28;20831;-73
2023/06/17 15:51:56;;;;;;;5.27;4.57;;;31.20;31.80;;;;;;10225842;28;20228;-73
2023/06/17 15:56:57;;;;;;;18.73;4.97;;;31.00;30.80;;;;;;10231176;28;20228;-72
2023/06/17 16:01:57;;;;;;;8.27;4.53;;;30.80;31.70;;;;;;10225101;28;20228;-73
2023/06/17 16:07:02;;;;;;;18.33;4.93;;;30.70;31.30;;;;;;10224023;28;20243;-73
2023/06/17 16:12:04;;;;;;;6.47;4.20;;;30.60;31.30;;;;;;10233821;28;20212;-74
2023/06/17 16:17:06;;;;;;;7.73;4.53;;;30.50;31.70;;;;;;10231225;28;20220;-73
2023/06/17 16:22:12;;;;;;;4.67;4.27;;;30.60;32.00;;;;;;10229492;28;20236;-73
2023/06/17 16:27:12;;;;;;;5.30;4.07;;;30.50;30.60;;;;;;10225498;28;20227;-74
2023/06/17 16:32:16;;;;;;;5.37;4.03;;;30.30;30.80;;;;;;10229830;28;20231;-74
2023/06/17 16:37:16;;;;;;;5.83;4.00;;;30.00;31.30;;;;;;10227961;28;20311;-73
2023/06/17 16:42:20;;;;;;;4.63;4.10;;;29.90;31.20;;;;;;10226645;28;20243;-72
2023/06/17 16:47:21;;;;;;;6.70;4.33;;;29.60;31.70;;;;;;10225591;28;20287;-73
2023/06/17 16:52:23;;;;;;;5.17;4.47;;;29.50;31.90;;;;;;10226953;28;20216;-73
2023/06/17 16:57:24;;;;;;;10.37;4.47;;;29.40;31.70;;;;;;10231999;28;20281;-73
2023/06/17 17:02:24;;;;;;;7.53;5.00;;;29.30;31.90;;;;;;10232424;28;20264;-74
2023/06/17 17:07:25;;;;;;;5.80;4.00;;;29.30;33.00;;;;;;10228488;28;20204;-74
2023/06/17 17:12:25;;;;;;;5.37;4.30;;;29.30;32.90;;;;;;10225759;28;20231;-73
2023/06/17 17:17:26;;;;;;;8.30;4.50;;;29.30;33.30;;;;;;10218162;28;20242;-74
2023/06/17 17:22:26;;;;;;;7.07;4.80;;;29.20;33.30;;;;;;10224140;28;20687;-74
2023/06/17 17:27:27;;;;;;;5.07;4.67;;;29.00;33.80;;;;;;10218932;28;20266;-73
2023/06/17 17:32:27;;;;;;;5.27;4.30;;;28.80;34.60;;;;;;10217820;28;20293;-74
2023/06/17 17:37:28;;;;;;;5.20;4.70;;;28.70;35.10;;;;;;10231616;28;20704;-74
2023/06/17 17:42:29;;;;;;;5.27;4.73;;;28.60;35.40;;;;;;10222379;28;20260;-73
2023/06/17 17:47:29;;;;;;;6.00;4.80;;;28.40;35.90;;;;;;10224586;28;20627;-73
2023/06/17 17:52:30;;;;;;;4.90;4.33;;;28.40;36.20;;;;;;10224695;28;20242;-73
2023/06/17 17:57:30;;;;;;;7.30;5.50;;;28.20;37.00;;;;;;10224355;28;20282;-73
2023/06/17 18:02:31;;;;;;;7.60;4.90;;;28.00;37.30;;;;;;10231107;28;20586;-74
2023/06/17 18:07:31;;;;;;;7.33;4.50;;;27.90;37.50;;;;;;10224000;28;20757;-74
2023/06/17 18:12:32;;;;;;;9.47;5.00;;;27.70;38.20;;;;;;10224031;28;20601;-73
2023/06/17 18:17:32;;;;;;;5.27;4.77;;;27.50;38.60;;;;;;10223857;28;20212;-73
2023/06/17 18:22:33;;;;;;;6.67;4.87;;;27.40;39.30;;;;;;10224124;28;20273;-73
2023/06/17 18:27:34;;;;;;;5.37;4.60;;;27.30;39.90;;;;;;10222406;28;20250;-73
2023/06/17 18:32:35;;;;;;;6.80;4.73;;;27.20;40.70;;;;;;10223370;28;20230;-74
2023/06/17 18:37:36;;;;;;;5.93;5.20;;;27.10;41.10;;;;;;10232416;28;20274;-74
2023/06/17 18:42:36;;;;;;;7.93;4.90;;;27.00;41.70;;;;;;10230404;28;20232;-75
2023/06/17 18:47:37;;;;;;;6.73;4.67;;;26.90;42.50;;;;;;10221165;28;20238;-74
2023/06/17 18:52:38;;;;;;;4.87;4.40;;;26.70;42.60;;;;;;10225377;28;20227;-73
2023/06/17 18:57:38;;;;;;;7.50;5.00;;;26.70;43.00;;;;;;10237060;28;20235;-74
2023/06/17 19:02:39;;;;;;;5.30;4.23;;;26.50;43.10;;;;;;10222884;28;20228;-73
2023/06/17 19:07:43;;;;;;;5.93;5.33;;;26.30;43.60;;;;;;10222924;28;20249;-73
2023/06/17 19:12:44;;;;;;;6.13;5.30;;;26.10;44.10;;;;;;10221144;28;20224;-74
2023/06/17 19:17:44;;;;;;;6.27;4.93;;;25.90;45.20;;;;;;10216488;28;20220;-73
2023/06/17 19:22:45;;;;;;;5.70;4.97;;;25.60;46.00;;;;;;10220310;28;20315;-74
2023/06/17 19:27:46;;;;;;;7.00;5.03;;;25.40;47.20;;;;;;10229073;28;20792;-73
2023/06/17 19:32:46;;;;;;;7.50;6.10;;;25.20;47.20;;;;;;10216621;28;20314;-74
2023/06/17 19:37:50;;;;;;;6.70;5.33;;;24.90;47.20;;;;;;10220434;28;20222;-74
2023/06/17 19:42:51;;;;;;;6.53;5.10;;;24.80;46.70;;;;;;10218282;28;20215;-73
2023/06/17 19:47:52;;;;;;;7.83;4.77;;;24.80;46.70;;;;;;10232431;28;20861;-74
2023/06/17 19:52:53;;;;;;;5.20;4.80;;;24.60;45.60;;;;;;10231903;28;20239;-74
2023/06/17 19:57:53;;;;;;;5.13;4.63;;;24.50;45.80;;;;;;10225750;28;20290;-73
2023/06/17 20:02:55;;;;;;;5.77;4.60;;;24.40;45.80;;;;;;10223368;28;20243;-73
2023/06/17 20:07:55;;;;;;;5.37;4.87;;;24.20;46.00;;;;;;10231719;28;20218;-73
2023/06/17 20:12:57;;;;;;;11.47;5.40;;;24.10;46.80;;;;;;10233526;28;20640;-73
2023/06/17 20:17:58;;;;;;;6.13;5.03;;;24.00;47.00;;;;;;10223538;28;20303;-73
2023/06/17 20:22:59;;;;;;;7.27;5.23;;;23.90;47.00;;;;;;10223632;28;20227;-72
2023/06/17 20:27:59;;;;;;;9.97;5.13;;;23.70;48.50;;;;;;10223299;28;20641;-73
2023/06/17 20:33:00;;;;;;;7.43;6.17;;;23.50;49.80;;;;;;10225379;28;20616;-74
2023/06/17 20:38:00;;;;;;;6.93;5.50;;;23.30;49.70;;;;;;10230446;28;20230;-73
2023/06/17 20:43:01;;;;;;;6.60;5.63;;;23.10;49.80;;;;;;10229680;28;20314;-73
2023/06/17 20:48:02;;;;;;;7.17;5.40;;;23.00;51.20;;;;;;10226350;28;20228;-73
2023/06/17 20:53:03;;;;;;;7.33;6.03;;;22.90;50.80;;;;;;10235890;28;20299;-73
2023/06/17 20:58:03;;;;;;;7.17;6.47;;;22.80;53.50;;;;;;10229345;28;20751;-73
2023/06/17 21:03:04;;;;;;;7.10;6.10;;;22.60;54.30;;;;;;10238055;28;20249;-73
2023/06/17 21:08:05;;;;;;;9.00;6.37;;;22.60;55.30;;;;;;10221640;28;20270;-72
2023/06/17 21:13:06;;;;;;;6.73;6.07;;;22.50;55.90;;;;;;10223422;28;20220;-72
2023/06/17 21:18:06;;;;;;;6.33;5.73;;;22.40;55.80;;;;;;10227809;28;20230;-73
2023/06/17 21:23:07;;;;;;;10.20;5.97;;;22.30;56.20;;;;;;10223561;28;20314;-73
2023/06/17 21:28:11;;;;;;;9.63;5.87;;;22.20;56.80;;;;;;10227620;28;20242;-73
2023/06/17 21:33:11;;;;;;;7.33;5.80;;;22.00;56.90;;;;;;10222748;28;20219;-74
2023/06/17 21:38:12;;;;;;;8.40;5.83;;;22.00;57.90;;;;;;10218688;28;20216;-74
2023/06/17 21:43:12;;;;;;;7.17;5.70;;;21.80;57.70;;;;;;10222847;28;20316;-74
2023/06/17 21:48:13;;;;;;;7.27;6.20;;;21.70;58.20;;;;;;10229110;28;20237;-74
2023/06/17 21:53:13;;;;;;;11.53;7.63;;;21.60;58.70;;;;;;10226435;28;20224;-74
2023/06/17 21:58:14;;;;;;;10.77;8.03;;;21.60;59.40;;;;;;10224675;28;20676;-73
2023/06/17 22:03:15;;;;;;;8.83;7.93;;;21.50;59.50;;;;;;10237151;28;20227;-74
2023/06/17 22:08:16;;;;;;;10.07;7.57;;;21.40;58.30;;;;;;10216453;28;20227;-74
2023/06/17 22:13:16;;;;;;;10.10;7.53;;;21.30;58.70;;;;;;10218111;28;20289;-73
2023/06/17 22:18:17;;;;;;;7.77;7.03;;;21.20;59.60;;;;;;10226635;28;20219;-73
2023/06/17 22:23:18;;;;;;;8.90;7.00;;;21.10;60.50;;;;;;10217897;28;20231;-73
2023/06/17 22:28:18;;;;;;;11.70;8.07;;;21.00;61.50;;;;;;10223980;28;20284;-73
2023/06/17 22:33:19;;;;;;;10.10;7.63;;;20.90;61.40;;;;;;10222411;28;20678;-73
2023/06/17 22:38:19;;;;;;;7.67;6.87;;;20.90;59.60;;;;;;10220250;28;20223;-74
2023/06/17 22:43:20;;;;;;;10.03;7.77;;;20.70;59.80;;;;;;10220996;28;20228;-74
2023/06/17 22:48:21;;;;;;;9.47;7.33;;;20.60;60.40;;;;;;10223342;28;20315;-73
2023/06/17 22:53:21;;;;;;;11.57;8.10;;;20.60;61.40;;;;;;10223049;28;20223;-73
2023/06/17 22:58:22;;;;;;;9.70;7.37;;;20.40;61.70;;;;;;10220240;28;20425;-72
2023/06/17 23:03:22;;;;;;;12.33;7.40;;;20.40;62.80;;;;;;10222508;28;20224;-74
2023/06/17 23:08:23;;;;;;;12.03;7.13;;;20.30;63.40;;;;;;10228516;28;20719;-74
2023/06/17 23:13:23;;;;;;;7.67;6.97;;;20.20;64.20;;;;;;10223178;28;20254;-73
2023/06/17 23:18:24;;;;;;;8.23;7.40;;;20.20;65.60;;;;;;10223873;28;20248;-73
2023/06/17 23:23:25;;;;;;;9.03;7.30;;;20.10;65.60;;;;;;10228083;28;20741;-73
2023/06/17 23:28:26;;;;;;;12.40;7.40;;;20.00;66.30;;;;;;10222105;28;20289;-73
2023/06/17 23:33:26;;;;;;;8.17;7.30;;;20.00;66.00;;;;;;10227433;28;20318;-74
2023/06/17 23:38:29;;;;;;;8.90;7.77;;;19.90;65.80;;;;;;10222541;28;20231;-74
2023/06/17 23:43:29;;;;;;;9.63;7.27;;;19.80;66.10;;;;;;10229251;28;20346;-74
2023/06/17 23:48:30;;;;;;;9.23;7.37;;;19.80;67.00;;;;;;10227558;28;20757;-74
2023/06/17 23:53:34;;;;;;;8.83;7.03;;;19.70;67.40;;;;;;10221215;28;20365;-73
2023/06/17 23:58:34;;;;;;;8.07;7.27;;;19.60;67.40;;;;;;10228039;28;20240;-73
